createdAt,value
2024-04-23T00:00:35.942Z,99538.97
2024-04-23T00:03:02.760Z,99583.22
2024-04-23T00:05:29.524Z,99541.38
2024-04-23T00:07:56.356Z,99550.31
2024-04-23T00:10:23.222Z,99518.44
2024-04-23T00:12:49.993Z,99562.00
2024-04-23T00:15:17.029Z,99520.22
2024-04-23T00:17:43.903Z,99546.13
2024-04-23T00:20:10.716Z,99537.75
2024-04-23T00:22:37.767Z,99573.84
2024-04-23T00:25:04.788Z,99521.06
2024-04-23T00:27:31.525Z,99517.03
2024-04-23T00:29:58.283Z,99508.91
2024-04-23T00:32:25.037Z,99529.03
2024-04-23T00:34:51.917Z,99545.56
2024-04-23T00:37:18.641Z,99548.41
2024-04-23T00:39:45.411Z,99520.56
2024-04-23T00:42:12.227Z,99507.44
2024-04-23T00:44:39.182Z,99526.47
2024-04-23T00:47:06.435Z,99492.69
2024-04-23T00:49:33.316Z,99548.78
2024-04-23T00:52:00.576Z,99533.25
2024-04-23T00:54:28.214Z,99509.94
2024-04-23T00:56:58.002Z,99537.97
2024-04-23T00:59:25.306Z,99469.84
2024-04-23T01:01:53.801Z,99457.75
2024-04-23T01:04:20.677Z,99475.69
2024-04-23T01:06:51.157Z,99489.72
2024-04-23T01:09:19.777Z,99494.78
2024-04-23T01:11:47.826Z,99504.38
2024-04-23T01:14:14.946Z,99522.81
2024-04-23T01:16:46.213Z,99508.34
2024-04-23T01:19:44.198Z,99530.63
2024-04-23T01:22:18.099Z,99520.25
2024-04-23T01:24:56.761Z,99519.97
2024-04-23T01:27:23.505Z,99538.44
2024-04-23T01:29:51.856Z,99468.22
2024-04-23T01:32:23.923Z,99525.44
2024-04-23T01:34:53.481Z,99522.03
2024-04-23T01:37:24.902Z,99513.19
2024-04-23T01:39:53.500Z,99520.91
2024-04-23T01:42:21.084Z,99542.56
2024-04-23T01:44:48.980Z,99491.50
2024-04-23T01:47:15.889Z,99523.25
2024-04-23T01:49:44.849Z,99518.59
2024-04-23T01:52:11.908Z,99515.78
2024-04-23T01:54:40.326Z,99513.25
2024-04-23T01:57:09.010Z,99552.97
2024-04-23T01:59:51.390Z,99511.41
2024-04-23T02:02:20.604Z,99413.94
2024-04-23T02:04:48.136Z,99489.88
2024-04-23T02:07:17.831Z,99507.00
2024-04-23T02:09:47.389Z,99493.28
2024-04-23T02:12:15.422Z,99510.06
2024-04-23T02:14:43.199Z,99494.44
2024-04-23T02:17:10.444Z,99502.66
2024-04-23T02:19:37.393Z,99552.72
2024-04-23T02:22:04.313Z,99408.78
2024-04-23T02:24:31.141Z,99504.31
2024-04-23T02:26:57.962Z,99537.69
2024-04-23T02:29:24.937Z,99504.78
2024-04-23T02:31:51.811Z,99443.75
2024-04-23T02:34:18.631Z,99550.50
2024-04-23T02:36:45.457Z,99436.22
2024-04-23T02:39:12.280Z,99555.16
2024-04-23T02:41:52.668Z,99496.31
2024-04-23T02:44:19.741Z,99454.88
2024-04-23T02:46:46.923Z,99383.84
2024-04-23T02:49:13.838Z,99501.66
2024-04-23T02:51:51.712Z,99543.59
2024-04-23T02:54:18.609Z,99389.59
2024-04-23T02:56:48.579Z,99502.00
2024-04-23T02:59:16.436Z,99507.94
2024-04-23T03:01:43.377Z,99486.66
2024-04-23T03:04:10.475Z,99547.84
2024-04-23T03:06:37.378Z,99493.25
2024-04-23T03:09:04.381Z,99486.56
2024-04-23T03:11:31.271Z,99549.22
2024-04-23T03:13:58.152Z,99491.41
2024-04-23T03:16:25.128Z,99485.16
2024-04-23T03:18:51.985Z,99502.75
2024-04-23T03:21:18.889Z,99492.06
2024-04-23T03:23:45.740Z,99494.78
2024-04-23T03:26:12.637Z,99526.00
2024-04-23T03:28:39.529Z,99422.50
2024-04-23T03:31:06.375Z,99483.44
2024-04-23T03:33:33.239Z,99486.31
2024-04-23T03:36:00.117Z,99439.53
2024-04-23T03:38:27.023Z,99434.06
2024-04-23T03:40:53.912Z,99501.47
2024-04-23T03:43:21.104Z,99484.69
2024-04-23T03:45:47.927Z,99495.66
2024-04-23T03:48:14.996Z,99527.81
2024-04-23T03:50:42.507Z,99509.63
2024-04-23T03:53:09.457Z,99495.47
2024-04-23T03:58:20.655Z,99470.72
2024-04-23T04:00:47.480Z,99430.53
2024-04-23T04:03:33.123Z,99450.44
2024-04-23T04:06:05.920Z,99465.03
2024-04-23T04:08:34.417Z,99467.66
2024-04-23T04:11:01.485Z,99447.13
2024-04-23T04:13:28.321Z,99459.38
2024-04-23T04:15:55.088Z,99436.56
2024-04-23T04:18:22.349Z,99508.44
2024-04-23T04:20:49.281Z,99452.91
2024-04-23T04:23:16.072Z,99511.13
2024-04-23T04:25:42.847Z,99497.06
2024-04-23T04:28:09.612Z,99385.31
2024-04-23T04:30:36.339Z,99487.59
2024-04-23T04:33:03.242Z,99475.66
2024-04-23T04:35:30.084Z,99470.53
2024-04-23T04:37:56.956Z,99469.88
2024-04-23T04:40:23.924Z,99343.03
2024-04-23T04:42:52.294Z,99445.31
2024-04-23T04:45:19.316Z,99477.84
2024-04-23T04:47:50.317Z,99405.81
2024-04-23T04:50:20.951Z,99418.53
2024-04-23T04:52:47.854Z,99358.63
2024-04-23T04:55:14.693Z,99452.91
2024-04-23T04:57:41.505Z,99467.84
2024-04-23T05:00:08.755Z,99475.66
2024-04-23T05:02:35.589Z,99436.44
2024-04-23T05:05:02.481Z,99497.34
2024-04-23T05:07:29.379Z,99418.25
2024-04-23T05:09:56.198Z,99493.44
2024-04-23T05:12:23.124Z,99470.03
2024-04-23T05:14:49.902Z,99443.78
2024-04-23T05:17:16.738Z,99422.66
2024-04-23T05:19:45.887Z,99419.00
2024-04-23T05:22:13.400Z,99456.25
2024-04-23T05:24:40.204Z,99439.63
2024-04-23T05:27:06.964Z,99472.91
2024-04-23T05:29:33.702Z,99500.31
2024-04-23T05:32:19.348Z,99373.22
2024-04-23T05:34:46.197Z,99425.38
2024-04-23T05:37:12.960Z,99385.94
2024-04-23T05:39:39.687Z,99431.88
2024-04-23T05:42:06.468Z,99490.34
2024-04-23T05:44:33.252Z,99488.69
2024-04-23T05:47:00.086Z,99457.59
2024-04-23T05:50:04.694Z,99491.44
2024-04-23T05:53:09.364Z,99488.00
2024-04-23T05:55:40.826Z,99489.09
2024-04-23T05:58:09.202Z,99383.06
2024-04-23T06:00:37.732Z,99492.16
2024-04-23T06:03:05.167Z,99505.47
2024-04-23T06:05:32.164Z,99424.94
2024-04-23T06:07:59.141Z,99363.38
2024-04-23T06:10:26.069Z,99417.47
2024-04-23T06:12:52.910Z,99450.09
2024-04-23T06:15:19.987Z,99462.53
2024-04-23T06:17:48.701Z,99426.97
2024-04-23T06:20:15.871Z,99442.81
2024-04-23T06:22:43.895Z,99374.81
2024-04-23T06:25:12.194Z,99490.81
2024-04-23T06:27:40.116Z,99475.41
2024-04-23T06:30:08.846Z,99476.44
2024-04-23T06:32:37.520Z,99471.78
2024-04-23T06:35:06.238Z,99370.28
2024-04-23T06:37:37.341Z,99491.69
2024-04-23T06:40:10.326Z,99491.28
2024-04-23T06:42:39.343Z,99454.59
2024-04-23T06:45:06.820Z,99449.19
2024-04-23T06:47:35.261Z,99423.47
2024-04-23T06:50:02.630Z,99424.44
2024-04-23T06:52:29.524Z,99448.38
2024-04-23T06:54:56.353Z,99437.09
2024-04-23T06:57:23.124Z,99462.47
2024-04-23T06:59:49.869Z,99431.56
2024-04-23T07:02:16.772Z,99450.44
2024-04-23T07:04:43.743Z,99387.97
2024-04-23T07:07:10.562Z,99476.72
2024-04-23T07:09:37.322Z,99433.50
2024-04-23T07:12:04.385Z,99455.25
2024-04-23T07:14:31.143Z,99351.78
2024-04-23T07:16:57.922Z,99416.94
2024-04-23T07:19:24.656Z,99480.28
2024-04-23T07:21:51.392Z,99481.59
2024-04-23T07:24:18.123Z,99423.34
2024-04-23T07:26:46.809Z,99445.06
2024-04-23T07:29:13.616Z,99417.66
2024-04-23T07:31:40.355Z,99468.88
2024-04-23T07:34:07.113Z,99426.50
2024-04-23T07:36:33.934Z,99421.75
2024-04-23T07:39:00.670Z,99383.38
2024-04-23T07:41:27.399Z,99408.19
2024-04-23T07:43:54.184Z,99422.78
2024-04-23T07:46:20.978Z,99400.38
2024-04-23T07:48:47.791Z,99417.13
2024-04-23T07:51:14.531Z,99441.34
2024-04-23T07:53:41.293Z,99407.25
2024-04-23T07:56:10.414Z,99377.94
2024-04-23T07:58:38.327Z,99407.44
2024-04-23T08:01:05.483Z,99359.88
2024-04-23T08:03:32.538Z,99419.06
2024-04-23T08:05:59.307Z,99375.59
2024-04-23T08:08:26.100Z,99391.81
2024-04-23T08:10:53.460Z,99391.97
2024-04-23T08:13:20.254Z,99386.00
2024-04-23T08:15:47.225Z,99382.31
2024-04-23T08:18:14.074Z,99396.94
2024-04-23T08:20:42.694Z,99422.97
2024-04-23T08:23:10.471Z,99340.75
2024-04-23T08:25:37.538Z,99368.50
2024-04-23T08:28:04.689Z,99422.00
2024-04-23T08:30:33.045Z,99364.75
2024-04-23T08:32:59.923Z,99377.31
2024-04-23T08:35:26.834Z,99399.84
2024-04-23T08:37:53.619Z,99414.69
2024-04-23T08:40:21.650Z,99408.88
2024-04-23T08:42:53.508Z,99384.03
2024-04-23T08:45:26.119Z,99374.88
2024-04-23T08:47:53.342Z,99313.72
2024-04-23T08:50:21.315Z,99396.84
2024-04-23T08:52:50.671Z,99362.81
2024-04-23T08:55:18.233Z,99371.38
2024-04-23T08:57:45.552Z,99385.84
2024-04-23T09:00:13.204Z,99393.13
2024-04-23T09:02:42.229Z,99397.53
2024-04-23T09:05:10.605Z,99388.50
2024-04-23T09:07:38.630Z,99361.59
2024-04-23T09:10:07.382Z,99361.88
2024-04-23T09:12:34.408Z,99371.28
2024-04-23T09:15:01.904Z,99370.94
2024-04-23T09:17:32.937Z,99368.44
2024-04-23T09:20:01.075Z,99361.25
2024-04-23T09:22:28.388Z,99332.88
2024-04-23T09:25:03.373Z,99350.22
2024-04-23T09:27:33.405Z,99324.03
2024-04-23T09:30:00.223Z,99312.97
2024-04-23T09:32:27.230Z,99323.63
2024-04-23T09:34:56.869Z,99369.03
2024-04-23T09:37:23.726Z,99319.53
2024-04-23T09:39:50.479Z,99306.53
2024-04-23T09:42:24.523Z,99327.94
2024-04-23T09:44:52.542Z,99276.97
2024-04-23T09:47:20.011Z,99296.44
2024-04-23T09:49:54.132Z,99283.53
2024-04-23T09:52:36.846Z,99338.13
2024-04-23T09:55:04.658Z,99288.69
2024-04-23T09:57:33.583Z,99333.84
2024-04-23T10:00:00.364Z,99323.53
2024-04-23T10:02:29.069Z,99306.34
2024-04-23T10:05:07.383Z,99322.19
2024-04-23T10:07:44.783Z,99316.03
2024-04-23T10:10:18.101Z,99299.63
2024-04-23T10:12:54.829Z,99289.91
2024-04-23T10:15:36.602Z,99267.56
2024-04-23T10:18:13.341Z,99291.91
2024-04-23T10:20:45.720Z,99254.88
2024-04-23T10:23:19.216Z,99304.03
2024-04-23T10:25:49.420Z,99275.66
2024-04-23T10:28:16.445Z,99284.97
2024-04-23T10:30:43.278Z,99292.25
2024-04-23T10:33:13.499Z,99307.41
2024-04-23T10:35:41.718Z,99269.78
2024-04-23T10:38:12.146Z,99284.06
2024-04-23T10:40:46.493Z,99247.47
2024-04-23T10:43:21.203Z,99223.28
2024-04-23T10:45:48.894Z,99181.50
2024-04-23T10:48:28.979Z,99285.19
2024-04-23T10:50:59.681Z,99258.25
2024-04-23T10:53:26.913Z,99231.88
2024-04-23T10:55:53.775Z,99249.00
2024-04-23T10:58:21.272Z,99248.78
2024-04-23T11:00:48.434Z,99267.34
2024-04-23T11:03:18.487Z,99246.31
2024-04-23T11:05:47.640Z,99251.31
2024-04-23T11:08:24.853Z,99236.75
2024-04-23T11:11:05.897Z,99233.66
2024-04-23T11:13:42.652Z,99250.28
2024-04-23T11:16:19.042Z,99229.53
2024-04-23T11:18:52.614Z,99198.59
2024-04-23T11:21:29.535Z,99170.34
2024-04-23T11:24:01.246Z,99209.81
2024-04-23T11:26:30.572Z,99182.78
2024-04-23T11:28:58.481Z,99213.56
2024-04-23T11:31:25.700Z,99184.06
2024-04-23T11:33:54.060Z,99209.44
2024-04-23T11:36:28.339Z,99169.97
2024-04-23T11:39:02.751Z,99191.53
2024-04-23T11:41:29.896Z,99172.19
2024-04-23T11:43:56.922Z,99165.53
2024-04-23T11:46:23.806Z,99195.47
2024-04-23T11:48:51.773Z,99144.47
2024-04-23T11:51:20.100Z,99161.78
2024-04-23T11:53:47.181Z,99153.41
2024-04-23T11:56:14.729Z,99146.00
2024-04-23T11:58:42.109Z,99171.53
2024-04-23T12:01:10.333Z,99173.44
2024-04-23T12:03:38.846Z,99145.94
2024-04-23T12:06:07.894Z,99140.69
2024-04-23T12:08:36.284Z,99133.09
2024-04-23T12:11:06.124Z,99126.09
2024-04-23T12:13:32.969Z,99150.38
2024-04-23T12:16:03.653Z,99119.53
2024-04-23T12:18:30.434Z,99110.75
2024-04-23T12:20:57.304Z,99158.69
2024-04-23T12:23:25.075Z,99121.38
2024-04-23T12:25:53.752Z,99112.59
2024-04-23T12:28:21.855Z,99134.63
2024-04-23T12:30:48.647Z,99146.50
2024-04-23T12:33:15.629Z,99102.53
2024-04-23T12:35:43.363Z,99110.16
2024-04-23T12:38:14.427Z,99124.50
2024-04-23T12:40:41.631Z,99113.34
2024-04-23T12:43:10.589Z,99096.00
2024-04-23T12:45:37.741Z,99012.00
2024-04-23T12:48:05.227Z,99037.22
2024-04-23T12:50:32.970Z,99125.09
2024-04-23T12:52:59.948Z,99142.41
2024-04-23T12:55:29.110Z,99072.28
2024-04-23T12:57:55.900Z,99099.34
2024-04-23T13:00:22.751Z,99105.56
2024-04-23T13:02:49.705Z,99099.41
2024-04-23T13:05:16.646Z,99043.69
2024-04-23T13:07:43.502Z,99106.59
2024-04-23T13:10:11.430Z,99051.34
2024-04-23T13:12:38.203Z,99072.50
2024-04-23T13:15:05.135Z,99069.66
2024-04-23T13:17:32.026Z,99073.34
2024-04-23T13:20:01.280Z,99049.69
2024-04-23T13:22:28.825Z,99049.22
2024-04-23T13:24:55.571Z,99036.25
2024-04-23T13:27:22.372Z,99053.34
2024-04-23T13:29:49.113Z,99038.88
2024-04-23T13:32:16.041Z,99007.25
2024-04-23T13:34:42.928Z,99034.91
2024-04-23T13:37:09.853Z,98964.88
2024-04-23T13:39:36.721Z,98977.31
2024-04-23T13:42:03.526Z,99033.25
2024-04-23T13:44:30.577Z,99015.53
2024-04-23T13:46:57.750Z,98994.13
2024-04-23T13:49:24.635Z,99033.72
2024-04-23T13:51:51.422Z,99006.72
2024-04-23T13:54:18.166Z,98988.69
2024-04-23T13:56:44.935Z,98994.31
2024-04-23T13:59:13.644Z,99004.38
2024-04-23T14:01:41.827Z,98934.69
2024-04-23T14:04:08.791Z,98995.59
2024-04-23T14:06:35.675Z,99010.56
2024-04-23T14:09:02.422Z,99021.72
2024-04-23T14:11:31.226Z,99006.56
2024-04-23T14:13:58.234Z,99004.53
2024-04-23T14:16:25.140Z,98999.00
2024-04-23T14:18:53.231Z,98970.88
2024-04-23T14:21:20.255Z,98997.94
2024-04-23T14:23:47.197Z,99006.38
2024-04-23T14:26:18.738Z,98957.56
2024-04-23T14:28:45.987Z,98978.16
2024-04-23T14:31:13.148Z,98972.66
2024-04-23T14:33:44.824Z,98985.34
2024-04-23T14:36:12.666Z,98959.56
2024-04-23T14:38:40.220Z,98900.41
2024-04-23T14:41:07.715Z,98972.13
2024-04-23T14:43:34.992Z,98955.88
2024-04-23T14:46:12.927Z,98982.34
2024-04-23T14:48:40.615Z,98972.00
2024-04-23T14:51:08.005Z,98965.44
2024-04-23T14:53:34.745Z,98949.53
2024-04-23T14:56:03.048Z,98929.00
2024-04-23T14:58:31.102Z,98976.84
2024-04-23T15:00:58.340Z,98934.25
2024-04-23T15:03:25.286Z,98917.88
2024-04-23T15:05:52.166Z,98968.69
2024-04-23T15:08:19.022Z,98940.28
2024-04-23T15:10:49.993Z,98928.94
2024-04-23T15:13:18.780Z,98950.84
2024-04-23T15:15:46.385Z,98943.97
2024-04-23T15:18:13.395Z,98942.47
2024-04-23T15:20:41.393Z,98912.91
2024-04-23T15:23:08.351Z,98936.28
2024-04-23T15:25:35.269Z,98920.25
2024-04-23T15:28:02.050Z,98932.97
2024-04-23T15:30:28.893Z,98929.94
2024-04-23T15:32:56.581Z,98895.38
2024-04-23T15:35:24.308Z,98923.09
2024-04-23T15:37:51.166Z,98914.59
2024-04-23T15:40:18.009Z,98924.59
2024-04-23T15:42:44.733Z,98915.59
2024-04-23T15:45:12.741Z,98938.50
2024-04-23T15:47:39.896Z,98970.03
2024-04-23T15:50:07.131Z,98923.97
2024-04-23T15:52:34.223Z,98904.75
2024-04-23T15:55:00.976Z,98905.09
2024-04-23T15:57:27.745Z,98952.88
2024-04-23T15:59:54.502Z,98912.91
2024-04-23T16:02:22.042Z,98923.47
2024-04-23T16:04:49.166Z,98892.41
2024-04-23T16:07:16.068Z,98948.00
2024-04-23T16:09:42.889Z,98914.75
2024-04-23T16:12:10.038Z,98898.06
2024-04-23T16:14:37.032Z,98910.09
2024-04-23T16:17:04.151Z,98892.88
2024-04-23T16:19:30.951Z,98900.88
2024-04-23T16:21:58.020Z,98908.41
2024-04-23T16:24:24.835Z,98906.22
2024-04-23T16:26:51.705Z,98893.19
2024-04-23T16:29:18.637Z,98900.06
2024-04-23T16:31:45.502Z,98898.88
2024-04-23T16:34:12.404Z,98896.41
2024-04-23T16:36:39.188Z,98894.91
2024-04-23T16:39:05.931Z,98895.22
2024-04-23T16:41:33.073Z,98898.22
2024-04-23T16:43:59.904Z,98832.63
2024-04-23T16:46:26.720Z,98896.56
2024-04-23T16:48:53.634Z,98895.22
2024-04-23T16:51:20.412Z,98870.00
2024-04-23T16:53:48.566Z,98918.78
2024-04-23T16:56:17.837Z,98907.94
2024-04-23T16:58:44.716Z,98877.03
2024-04-23T17:01:11.813Z,98888.19
2024-04-23T17:03:39.674Z,98899.81
2024-04-23T17:06:06.797Z,98881.63
2024-04-23T17:08:33.655Z,98855.72
2024-04-23T17:11:01.291Z,98868.75
2024-04-23T17:13:28.086Z,98863.06
2024-04-23T17:15:54.955Z,98871.09
2024-04-23T17:18:21.773Z,98874.41
2024-04-23T17:20:48.632Z,98858.72
2024-04-23T17:23:18.241Z,98895.47
2024-04-23T17:25:45.184Z,98888.28
2024-04-23T17:28:11.980Z,98860.19
2024-04-23T17:30:38.711Z,98927.63
2024-04-23T17:33:06.927Z,98895.41
2024-04-23T17:35:33.962Z,98866.97
2024-04-23T17:38:00.796Z,98872.03
2024-04-23T17:40:27.593Z,98878.38
2024-04-23T17:42:54.429Z,98858.28
2024-04-23T17:45:21.192Z,98887.16
2024-04-23T17:47:48.177Z,98865.44
2024-04-23T17:50:15.388Z,98866.91
2024-04-23T17:52:42.413Z,98850.28
2024-04-23T17:55:09.256Z,98866.16
2024-04-23T17:57:36.092Z,98875.34
2024-04-23T18:00:06.268Z,98846.81
2024-04-23T18:02:33.055Z,98866.34
2024-04-23T18:05:01.641Z,98862.16
2024-04-23T18:07:28.728Z,98858.31
2024-04-23T18:09:55.475Z,98860.28
2024-04-23T18:12:22.946Z,98880.66
2024-04-23T18:14:51.115Z,98863.28
2024-04-23T18:17:17.957Z,98854.09
2024-04-23T18:19:44.897Z,98800.28
2024-04-23T18:22:11.629Z,98904.31
2024-04-23T18:24:38.498Z,98853.03
2024-04-23T18:27:05.324Z,98861.34
2024-04-23T18:29:32.063Z,98899.38
2024-04-23T18:31:58.937Z,98841.94
2024-04-23T18:34:25.694Z,98863.72
2024-04-23T18:36:52.498Z,98862.38
2024-04-23T18:39:19.288Z,98863.34
2024-04-23T18:41:46.669Z,98861.63
2024-04-23T18:44:14.336Z,98867.56
2024-04-23T18:46:41.264Z,98895.34
2024-04-23T18:49:08.146Z,98900.94
2024-04-23T18:51:34.928Z,98892.16
2024-04-23T18:54:01.715Z,98931.25
2024-04-23T18:56:28.444Z,98883.81
2024-04-23T18:58:55.197Z,98905.94
2024-04-23T19:01:22.035Z,98873.38
2024-04-23T19:03:49.543Z,98898.34
2024-04-23T19:06:18.426Z,98917.81
2024-04-23T19:08:47.269Z,98903.06
2024-04-23T19:11:15.584Z,98897.22
2024-04-23T19:13:42.828Z,98901.25
2024-04-23T19:16:13.396Z,98924.75
2024-04-23T19:18:45.319Z,98900.13
2024-04-23T19:21:12.172Z,98908.72
2024-04-23T19:23:38.938Z,98900.50
2024-04-23T19:26:05.973Z,98921.41
2024-04-23T19:28:35.769Z,98886.56
2024-04-23T19:31:09.791Z,98929.31
2024-04-23T19:33:36.952Z,98916.31
2024-04-23T19:36:04.022Z,98857.91
2024-04-23T19:38:32.793Z,98907.72
2024-04-23T19:41:06.857Z,98893.13
2024-04-23T19:43:42.202Z,98878.06
2024-04-23T19:46:18.635Z,98938.84
2024-04-23T19:48:46.365Z,98875.16
2024-04-23T19:51:19.493Z,98922.97
2024-04-23T19:53:52.187Z,98886.03
2024-04-23T19:56:37.143Z,98867.03
2024-04-23T19:59:06.785Z,98902.78
2024-04-23T20:01:39.274Z,98881.63
2024-04-23T20:04:06.606Z,98934.59
2024-04-23T20:06:34.270Z,98892.03
2024-04-23T20:09:02.904Z,98817.44
2024-04-23T20:11:29.948Z,98723.66
2024-04-23T20:13:56.807Z,98872.75
2024-04-23T20:16:24.351Z,98789.38
2024-04-23T20:18:53.776Z,98862.44
2024-04-23T20:21:20.563Z,98864.28
2024-04-23T20:23:53.456Z,98864.63
2024-04-23T20:26:20.805Z,98855.00
2024-04-23T20:28:47.695Z,98802.31
2024-04-23T20:31:14.560Z,98860.47
2024-04-23T20:33:42.388Z,98890.16
2024-04-23T20:36:09.995Z,98887.75
2024-04-23T20:38:36.801Z,98837.13
2024-04-23T20:41:07.672Z,98782.31
2024-04-23T20:43:34.828Z,98766.84
2024-04-23T20:46:05.625Z,98836.75
2024-04-23T20:48:34.276Z,98889.28
2024-04-23T20:51:01.085Z,98768.63
2024-04-23T20:53:27.945Z,98776.75
2024-04-23T20:55:54.693Z,98841.69
2024-04-23T20:58:22.141Z,98841.31
2024-04-23T21:00:49.235Z,98877.78
2024-04-23T21:03:16.160Z,98735.47
2024-04-23T21:05:43.040Z,98892.59
2024-04-23T21:08:12.187Z,98732.81
2024-04-23T21:10:39.824Z,98842.38
2024-04-23T21:13:06.933Z,98823.00
2024-04-23T21:15:34.964Z,98880.06
2024-04-23T21:18:02.097Z,98765.47
2024-04-23T21:20:28.988Z,98755.72
2024-04-23T21:22:55.794Z,98856.00
2024-04-23T21:25:22.571Z,98747.75
2024-04-23T21:27:49.334Z,98832.00
2024-04-23T21:30:16.401Z,98808.56
2024-04-23T21:32:43.450Z,98832.28
2024-04-23T21:35:10.477Z,98861.75
2024-04-23T21:37:38.313Z,98761.44
2024-04-23T21:40:06.154Z,98860.81
2024-04-23T21:42:40.880Z,98791.47
2024-04-23T21:45:09.067Z,98818.16
2024-04-23T21:47:36.537Z,98844.66
2024-04-23T21:50:04.592Z,98800.41
2024-04-23T21:52:39.950Z,98864.09
2024-04-23T21:55:09.728Z,98781.00
2024-04-23T21:57:36.764Z,98828.78
2024-04-23T22:00:04.158Z,98855.00
2024-04-23T22:02:31.151Z,98890.50
2024-04-23T22:04:58.002Z,98798.28
2024-04-23T22:07:24.779Z,98772.59
2024-04-23T22:09:51.516Z,98821.75
2024-04-23T22:12:18.319Z,98790.75
2024-04-23T22:14:45.077Z,98812.22
2024-04-23T22:17:12.509Z,98867.28
2024-04-23T22:19:39.405Z,98862.81
2024-04-23T22:22:06.178Z,98843.81
2024-04-23T22:24:32.978Z,98807.63
2024-04-23T22:26:59.714Z,98843.81
2024-04-23T22:29:26.640Z,98866.41
2024-04-23T22:31:53.514Z,98808.16
2024-04-23T22:34:20.329Z,98657.56
2024-04-23T22:36:47.097Z,98866.38
2024-04-23T22:39:13.895Z,98823.59
2024-04-23T22:41:40.699Z,98866.59
2024-04-23T22:44:07.450Z,98757.84
2024-04-23T22:46:34.223Z,98838.81
2024-04-23T22:49:03.440Z,98736.75
2024-04-23T22:51:30.415Z,98739.25
2024-04-23T22:53:57.284Z,98775.59
2024-04-23T22:56:24.501Z,98788.94
2024-04-23T22:58:51.274Z,98835.09
2024-04-23T23:01:18.062Z,98873.44
2024-04-23T23:03:44.862Z,98831.44
2024-04-23T23:06:11.649Z,98780.38
2024-04-23T23:08:38.381Z,98750.94
2024-04-23T23:11:05.235Z,98863.16
2024-04-23T23:13:32.019Z,98817.94
2024-04-23T23:15:59.021Z,98805.63
2024-04-23T23:18:25.758Z,98791.97
2024-04-23T23:20:52.676Z,98823.41
2024-04-23T23:23:19.626Z,98771.47
2024-04-23T23:25:46.546Z,98792.84
2024-04-23T23:28:13.521Z,98800.84
2024-04-23T23:30:40.287Z,98612.47
2024-04-23T23:33:07.283Z,98792.34
2024-04-23T23:35:34.166Z,98809.25
2024-04-23T23:38:00.971Z,98806.63
2024-04-23T23:40:27.753Z,98752.44
2024-04-23T23:42:55.931Z,98785.56
2024-04-23T23:45:24.310Z,98701.41
2024-04-23T23:47:52.412Z,98773.22
2024-04-23T23:50:19.363Z,98792.94
2024-04-23T23:52:46.256Z,98695.94
2024-04-23T23:55:13.092Z,98812.09
2024-04-23T23:57:41.091Z,98783.69
